createdAt,value
2023-01-19T00:04:25.028Z,1.04
2023-01-19T00:09:46.714Z,1.16
2023-01-19T00:15:09.070Z,0.95
2023-01-19T00:20:32.651Z,1.10
2023-01-19T00:25:54.441Z,1.08
2023-01-19T00:31:16.263Z,0.93
2023-01-19T00:36:37.992Z,0.93
2023-01-19T00:42:18.343Z,1.02
2023-01-19T00:47:40.310Z,0.96
2023-01-19T00:53:02.810Z,0.88
2023-01-19T00:58:24.673Z,0.90
2023-01-19T01:03:46.367Z,0.86
2023-01-19T01:09:11.951Z,0.87
2023-01-19T01:14:33.956Z,0.90
2023-01-19T01:19:55.626Z,0.91
2023-01-19T01:25:19.338Z,0.97
2023-01-19T01:30:41.117Z,0.91
2023-01-19T01:36:03.136Z,0.96
2023-01-19T01:41:26.645Z,0.93
2023-01-19T01:46:48.471Z,0.86
2023-01-19T01:52:11.264Z,0.88
2023-01-19T01:57:36.948Z,0.92
2023-01-19T02:03:00.543Z,0.90
2023-01-19T02:08:50.847Z,0.86
2023-01-19T02:14:12.531Z,0.81
2023-01-19T02:19:41.758Z,0.78
2023-01-19T02:25:05.222Z,0.78
2023-01-19T02:30:27.789Z,0.85
2023-01-19T02:35:51.947Z,0.86
2023-01-19T02:41:19.531Z,0.83
2023-01-19T02:46:41.687Z,0.77
2023-01-19T02:52:04.275Z,0.81
2023-01-19T02:57:43.563Z,0.68
2023-01-19T03:03:37.113Z,0.65
2023-01-19T03:09:15.430Z,0.63
2023-01-19T03:14:46.167Z,0.57
2023-01-19T03:20:08.850Z,0.50
2023-01-19T03:25:35.134Z,0.71
2023-01-19T03:31:01.822Z,0.72
2023-01-19T03:36:30.691Z,0.67
2023-01-19T03:41:57.485Z,0.44
2023-01-19T03:47:20.367Z,0.44
2023-01-19T03:52:42.367Z,0.42
2023-01-19T03:58:04.299Z,0.18
2023-01-19T04:03:26.006Z,0.16
2023-01-19T04:08:49.666Z,-0.05
2023-01-19T04:14:11.402Z,0.08
2023-01-19T04:19:33.097Z,0.18
2023-01-19T04:24:55.600Z,0.34
2023-01-19T04:30:17.473Z,0.27
2023-01-19T04:35:39.229Z,0.32
2023-01-19T04:41:00.963Z,0.54
2023-01-19T04:46:22.735Z,0.65
2023-01-19T04:51:44.454Z,0.51
2023-01-19T04:57:06.161Z,0.55
2023-01-19T05:02:28.007Z,0.37
2023-01-19T05:07:49.727Z,0.54
2023-01-19T05:13:11.433Z,0.55
2023-01-19T05:18:36.287Z,0.65
2023-01-19T05:23:57.993Z,0.53
2023-01-19T05:29:19.722Z,0.53
2023-01-19T05:34:41.422Z,0.39
2023-01-19T05:40:03.370Z,0.49
2023-01-19T05:45:25.074Z,0.41
2023-01-19T05:50:49.345Z,0.45
2023-01-19T05:56:11.570Z,0.65
2023-01-19T06:01:36.498Z,0.54
2023-01-19T06:06:59.193Z,0.46
2023-01-19T06:12:20.915Z,0.54
2023-01-19T06:17:42.933Z,0.52
2023-01-19T06:23:04.737Z,0.54
2023-01-19T06:28:26.650Z,0.54
2023-01-19T06:33:48.417Z,0.66
2023-01-19T06:39:10.590Z,0.62
2023-01-19T06:44:32.312Z,0.70
2023-01-19T06:49:54.048Z,0.70
2023-01-19T06:55:16.182Z,0.57
2023-01-19T07:00:38.495Z,0.53
2023-01-19T07:06:02.528Z,0.50
2023-01-19T07:11:29.811Z,0.47
2023-01-19T07:16:54.894Z,0.54
2023-01-19T07:22:16.929Z,0.68
2023-01-19T07:27:38.756Z,0.66
2023-01-19T07:33:01.141Z,0.54
2023-01-19T07:38:24.169Z,0.61
2023-01-19T07:43:45.973Z,0.35
2023-01-19T07:49:07.937Z,0.52
2023-01-19T07:54:29.672Z,0.65
2023-01-19T07:59:51.378Z,0.73
2023-01-19T08:05:13.295Z,0.83
2023-01-19T08:10:35.069Z,0.89
2023-01-19T08:15:56.857Z,0.96
2023-01-19T08:21:18.741Z,1.04
2023-01-19T08:26:40.617Z,0.82
2023-01-19T08:32:03.102Z,0.89
2023-01-19T08:37:24.915Z,0.94
2023-01-19T08:42:46.614Z,0.86
2023-01-19T08:48:08.617Z,0.83
2023-01-19T08:53:30.325Z,0.91
2023-01-19T08:59:07.821Z,0.93
2023-01-19T09:04:30.677Z,1.04
2023-01-19T09:09:52.399Z,1.17
2023-01-19T09:15:14.103Z,1.33
2023-01-19T09:20:38.497Z,1.46
2023-01-19T09:26:02.963Z,1.72
2023-01-19T09:31:24.919Z,1.69
2023-01-19T09:36:47.229Z,1.72
2023-01-19T09:42:32.285Z,1.83
2023-01-19T09:47:55.449Z,2.02
2023-01-19T09:53:32.821Z,1.96
2023-01-19T09:58:54.542Z,2.06
2023-01-19T10:04:30.411Z,2.06
2023-01-19T10:10:19.564Z,2.12
2023-01-19T10:15:47.065Z,2.10
2023-01-19T10:21:10.498Z,1.83
2023-01-19T10:26:37.541Z,2.17
2023-01-19T10:32:08.034Z,2.20
2023-01-19T10:37:38.548Z,2.34
2023-01-19T10:43:01.179Z,2.43
2023-01-19T10:48:23.878Z,2.38
2023-01-19T10:53:59.570Z,2.41
2023-01-19T10:59:45.135Z,2.58
2023-01-19T11:05:28.119Z,2.60
2023-01-19T11:11:02.396Z,2.59
2023-01-19T11:16:34.695Z,2.83
2023-01-19T11:22:21.499Z,2.81
2023-01-19T11:27:51.290Z,2.80
2023-01-19T11:33:24.671Z,2.78
2023-01-19T11:38:50.486Z,2.90
2023-01-19T11:44:18.136Z,2.86
2023-01-19T11:50:00.816Z,3.07
2023-01-19T11:55:37.871Z,3.14
2023-01-19T12:01:30.675Z,3.08
2023-01-19T12:06:55.697Z,3.03
2023-01-19T12:12:28.800Z,3.11
2023-01-19T12:17:54.129Z,3.14
2023-01-19T12:23:37.353Z,3.29
2023-01-19T12:29:13.182Z,3.16
2023-01-19T12:35:01.616Z,3.16
2023-01-19T12:40:27.519Z,3.22
2023-01-19T12:45:49.614Z,3.14
2023-01-19T12:51:23.323Z,3.15
2023-01-19T12:56:45.310Z,3.06
2023-01-19T13:02:25.535Z,3.10
2023-01-19T13:08:02.434Z,3.16
2023-01-19T13:13:24.905Z,3.00
2023-01-19T13:18:52.428Z,2.94
2023-01-19T13:24:22.329Z,2.96
2023-01-19T13:29:44.387Z,2.88
2023-01-19T13:35:13.073Z,2.77
2023-01-19T13:40:38.953Z,2.53
2023-01-19T13:46:01.421Z,2.39
2023-01-19T13:51:23.716Z,2.40
2023-01-19T13:56:50.211Z,2.41
2023-01-19T14:02:13.932Z,2.57
2023-01-19T14:07:35.700Z,2.54
2023-01-19T14:13:15.675Z,2.47
2023-01-19T14:18:37.399Z,2.45
2023-01-19T14:24:17.030Z,2.45
2023-01-19T14:29:38.849Z,2.45
2023-01-19T14:35:06.518Z,2.35
2023-01-19T14:40:29.772Z,2.36
2023-01-19T14:45:51.567Z,2.33
2023-01-19T14:51:18.872Z,2.41
2023-01-19T14:56:40.621Z,2.29
2023-01-19T15:02:02.451Z,2.23
2023-01-19T15:07:25.127Z,2.39
2023-01-19T15:12:48.151Z,2.34
2023-01-19T15:18:15.230Z,2.28
2023-01-19T15:23:36.965Z,2.42
2023-01-19T15:28:58.735Z,2.41
2023-01-19T15:34:20.527Z,2.25
2023-01-19T15:39:42.313Z,2.22
2023-01-19T15:45:36.347Z,2.23
2023-01-19T15:50:58.226Z,2.17
2023-01-19T15:56:25.944Z,2.33
2023-01-19T16:01:47.866Z,2.41
2023-01-19T16:07:09.763Z,2.30
2023-01-19T16:12:31.473Z,2.23
2023-01-19T16:17:53.252Z,2.32
2023-01-19T16:23:15.640Z,2.32
2023-01-19T16:28:37.718Z,2.37
2023-01-19T16:33:59.493Z,2.44
2023-01-19T16:39:21.788Z,2.32
2023-01-19T16:44:43.523Z,2.36
2023-01-19T16:50:05.868Z,2.33
2023-01-19T16:55:27.601Z,2.31
2023-01-19T17:00:49.518Z,2.37
2023-01-19T17:06:13.421Z,2.45
2023-01-19T17:11:36.430Z,2.51
2023-01-19T17:17:00.538Z,2.28
2023-01-19T17:22:22.393Z,2.19
2023-01-19T17:27:44.205Z,2.36
2023-01-19T17:33:06.004Z,2.41
2023-01-19T17:38:28.309Z,2.43
2023-01-19T17:43:51.368Z,2.41
2023-01-19T17:49:13.077Z,2.45
2023-01-19T17:54:34.979Z,2.48
2023-01-19T17:59:56.682Z,2.35
2023-01-19T18:05:19.196Z,2.23
2023-01-19T18:10:42.189Z,2.22
2023-01-19T18:16:07.319Z,2.15
2023-01-19T18:21:30.297Z,2.09
2023-01-19T18:26:54.240Z,2.10
2023-01-19T18:32:17.390Z,2.14
2023-01-19T18:37:39.254Z,2.16
2023-01-19T18:43:01.003Z,2.06
2023-01-19T18:48:22.910Z,2.04
2023-01-19T18:53:45.544Z,2.13
2023-01-19T18:59:07.358Z,2.11
2023-01-19T19:04:29.072Z,2.09
2023-01-19T19:09:50.838Z,2.14
2023-01-19T19:15:13.894Z,2.06
2023-01-19T19:20:38.702Z,1.97
2023-01-19T19:26:05.672Z,1.89
2023-01-19T19:31:28.133Z,1.95
2023-01-19T19:36:50.982Z,2.12
2023-01-19T19:42:12.792Z,2.19
2023-01-19T19:47:35.236Z,2.20
2023-01-19T19:52:58.760Z,2.25
2023-01-19T19:58:20.572Z,2.26
2023-01-19T20:03:42.664Z,2.15
2023-01-19T20:09:06.432Z,2.13
2023-01-19T20:14:28.148Z,2.13
2023-01-19T20:19:49.969Z,2.18
2023-01-19T20:25:11.746Z,2.11
2023-01-19T20:30:33.550Z,1.91
2023-01-19T20:35:55.378Z,1.94
2023-01-19T20:41:18.266Z,1.86
2023-01-19T20:46:40.540Z,1.81
2023-01-19T20:52:02.537Z,2.05
2023-01-19T20:57:24.299Z,1.69
2023-01-19T21:02:46.226Z,1.68
2023-01-19T21:08:08.901Z,1.69
2023-01-19T21:13:31.599Z,1.93
2023-01-19T21:18:53.891Z,1.90
2023-01-19T21:24:15.956Z,2.05
2023-01-19T21:29:37.676Z,1.91
2023-01-19T21:34:59.390Z,1.86
2023-01-19T21:40:21.193Z,1.94
2023-01-19T21:45:43.229Z,1.85
2023-01-19T21:51:05.214Z,1.89
2023-01-19T21:56:28.621Z,1.81
2023-01-19T22:01:50.598Z,1.86
2023-01-19T22:07:12.487Z,1.84
2023-01-19T22:12:34.231Z,1.74
2023-01-19T22:17:55.959Z,1.76
2023-01-19T22:23:17.713Z,1.64
2023-01-19T22:28:39.498Z,1.69
2023-01-19T22:34:01.300Z,1.64
2023-01-19T22:39:23.011Z,1.63
2023-01-19T22:44:45.806Z,1.72
2023-01-19T22:50:08.465Z,1.55
2023-01-19T22:55:30.623Z,1.40
2023-01-19T23:00:52.416Z,1.48
2023-01-19T23:06:19.852Z,1.37
2023-01-19T23:11:44.096Z,1.45
2023-01-19T23:17:06.011Z,1.67
2023-01-19T23:22:27.736Z,1.66
2023-01-19T23:27:49.471Z,1.73
2023-01-19T23:33:11.186Z,1.64
2023-01-19T23:38:32.914Z,1.51
2023-01-19T23:43:54.973Z,1.55
2023-01-19T23:49:18.082Z,1.62
2023-01-19T23:54:39.801Z,1.62
